Aviation Digital Data Service (ADDS)

Output produced by METARs form (0138 UTC 16 January 2019)
found at http://www.aviationweather.gov/metar/data/
 
WABB 160100Z 26006KT 9999 FEW018 BKN100 28/25 Q1009 NOSIG
TAF WABB 152200Z 1600/1706 28008KT 9999 SCT018 
     TEMPO 1604/1608 5000 RA FEW017CB 
     BECMG 1610/1612 00000KT
       
WAAA 160100Z 11005KT 9999 FEW017CB FEW018 26/25 Q1009 NOSIG
TAF WAAA 152300Z 1600/1706 09004KT 8000 -RA SCT019 BKN100 
     BECMG 1601/1603 32008KT 
     TEMPO 1606/1610 5000 TSRA FEW017CB 
     BECMG 1611/1613 12004KT 8000 
     TEMPO 1619/1623 5000 TSRA FEW017CB 
     BECMG 1701/1703 30010KT 9000
       
WAPP 160130Z 34005KT 250V040 9999 SCT019 32/25 Q1008 NOSIG
TAF WAPP 152300Z 1600/1624 34005KT 9999 SCT018
       
WIMM 160100Z 23005KT 7000 FEW019 25/23 Q1011 NOSIG
TAF WIMM 152300Z 1600/1700 26004KT 5000 HZ SCT018 
     BECMG 1601/1602 34006KT 8000 
     TEMPO 1611/1612 6000 -RA FEW016CB BKN017 
     BECMG 1613/1614 24005KT 5000 HZ SCT018
       
WAMM 160130Z 03006KT 9999 SCT022 29/23 Q1011 NOSIG
TAF WAMM 152300Z 1600/1706 04005KT 9000 SCT020 
     PROB40 
     TEMPO 1602/1606 5000 -RA FEW017CB SCT018 
     BECMG 1610/1612 35004KT
       
WAJJ 160130Z 27006KT 9999 SCT013 29/24 Q1007 NOSIG
WIII 160130Z 31007KT 7000 SCT021 26/23 Q1010 NOSIG
TAF WIII 152300Z 1600/1706 30007KT 8000 SCT020 
     TEMPO 1602/1605 -TSRA FEW018CB 
     BECMG 1612/1624 24010KT
       
TAF WITT 152300Z 1600/1624 15006KT 8000 SCT018 
     BECMG 1603/1605 04008KT 
     BECMG 1608/1610 15004KT
       
WIPP 160100Z 27009KT 9999 FEW010 24/23 Q1011
TAF WIPP 152300Z 1600/1624 30008KT 9999 SCT012 
     TEMPO 1608/1612 5000 RA BKN010 FEW012CB 
     TEMPO 1620/1624 3000 BR
       
WIBB 160100Z 00000KT 8000 FEW015 24/23 Q1010
WIOO 160100Z 03003KT 9999 SCT012 26/24 Q1010